Neafus, Kentucky
Current Conditions -  °F | °C
As of 11:53 PM on Friday 28 Nov 2014 (Local Time) from KBWG Reporting Station
Clear Clear  
Wind Chill: 36°   Ceiling: Unl
Heat Index: 42°   Visibility: 10mi
Dew Point: 22°   Wind: 12mph
Humidity: 45%   Direction: 200°SSW
Pressure: 30.09"   Gusts: NA
Location:  37.4228°N, 86.4831°W
Report Text: KBWG 290553Z AUTO 20010KT 10SM CLR 06/M06 A3009 RMK AO2 SLP191 T00561056 10067 20022 400721056 55003
Loading
Personal Weather Stations






























Interactive Weather Map New forecast layout! Learn more

10-Day Weather Forecast

Advertisements
Track Severe Weather on mobile